createdAt,value
2024-02-14T00:00:15.822Z,4.55
2024-02-14T00:02:51.120Z,5.35
2024-02-14T00:05:19.262Z,8.02
2024-02-14T00:07:46.853Z,5.80
2024-02-14T00:10:14.473Z,8.07
2024-02-14T00:12:41.994Z,5.25
2024-02-14T00:15:10.092Z,3.78
2024-02-14T00:17:37.878Z,3.08
2024-02-14T00:20:06.177Z,2.17
2024-02-14T00:22:33.675Z,5.78
2024-02-14T00:25:01.255Z,4.65
2024-02-14T00:27:29.159Z,2.17
2024-02-14T00:29:57.528Z,5.85
2024-02-14T00:32:25.287Z,2.58
2024-02-14T00:34:53.127Z,5.60
2024-02-14T00:37:21.406Z,6.18
2024-02-14T00:39:51.446Z,6.47
2024-02-14T00:42:18.935Z,4.95
2024-02-14T00:44:46.550Z,4.63
2024-02-14T00:47:15.136Z,3.38
2024-02-14T00:49:42.845Z,4.38
2024-02-14T00:52:10.446Z,4.60
2024-02-14T00:54:37.863Z,11.13
2024-02-14T00:57:05.371Z,10.85
2024-02-14T00:59:32.931Z,7.28
2024-02-14T01:02:00.802Z,10.05
2024-02-14T01:04:28.949Z,7.60
2024-02-14T01:06:56.664Z,9.45
2024-02-14T01:09:24.282Z,8.07
2024-02-14T01:11:52.009Z,7.72
2024-02-14T01:14:19.570Z,8.02
2024-02-14T01:16:47.307Z,8.38
2024-02-14T01:19:15.556Z,10.50
2024-02-14T01:21:43.299Z,7.78
2024-02-14T01:24:10.878Z,13.15
2024-02-14T01:26:38.542Z,10.27
2024-02-14T01:29:07.083Z,11.35
2024-02-14T01:31:35.879Z,14.80
2024-02-14T01:34:03.979Z,16.67
2024-02-14T01:36:31.884Z,17.27
2024-02-14T01:38:59.497Z,14.40
2024-02-14T01:41:27.215Z,12.10
2024-02-14T01:43:54.823Z,16.55
2024-02-14T01:46:22.379Z,13.68
2024-02-14T01:48:51.260Z,19.40
2024-02-14T01:51:25.479Z,18.25
2024-02-14T01:53:55.544Z,13.25
2024-02-14T01:56:23.108Z,17.90
2024-02-14T01:58:50.661Z,20.40
2024-02-14T02:01:19.160Z,16.27
2024-02-14T02:03:46.803Z,20.05
2024-02-14T02:06:16.859Z,18.85
2024-02-14T02:08:45.405Z,17.08
2024-02-14T02:11:12.993Z,18.98
2024-02-14T02:13:41.552Z,20.73
2024-02-14T02:16:09.197Z,18.73
2024-02-14T02:18:36.918Z,26.10
2024-02-14T02:21:08.556Z,25.30
2024-02-14T02:23:36.586Z,16.25
2024-02-14T02:26:04.176Z,16.30
2024-02-14T02:28:32.203Z,23.63
2024-02-14T02:30:59.630Z,25.38
2024-02-14T02:33:27.743Z,27.73
2024-02-14T02:35:56.008Z,19.55
2024-02-14T02:38:24.014Z,21.70
2024-02-14T02:40:51.881Z,24.88
2024-02-14T02:43:19.830Z,25.73
2024-02-14T02:45:47.530Z,24.08
2024-02-14T02:48:15.231Z,19.30
2024-02-14T02:50:43.639Z,20.20
2024-02-14T02:53:11.204Z,24.80
2024-02-14T02:55:38.923Z,25.85
2024-02-14T02:58:07.579Z,20.88
2024-02-14T03:00:35.139Z,21.08
2024-02-14T03:03:05.795Z,25.05
2024-02-14T03:05:34.845Z,19.80
2024-02-14T03:08:02.603Z,28.33
2024-02-14T03:10:30.983Z,19.77
2024-02-14T03:12:58.642Z,16.52
2024-02-14T03:15:27.477Z,27.88
2024-02-14T03:17:55.146Z,18.65
2024-02-14T03:20:22.751Z,15.75
2024-02-14T03:22:50.350Z,18.13
2024-02-14T03:25:19.034Z,18.02
2024-02-14T03:27:48.913Z,18.60
2024-02-14T03:30:17.780Z,19.17
2024-02-14T03:32:46.403Z,20.45
2024-02-14T03:35:14.842Z,21.55
2024-02-14T03:37:43.873Z,23.83
2024-02-14T03:40:12.981Z,17.42
2024-02-14T03:42:41.472Z,16.05
2024-02-14T03:45:09.757Z,24.92
2024-02-14T03:47:41.194Z,17.17
2024-02-14T03:50:10.129Z,16.20
2024-02-14T03:52:37.834Z,26.10
2024-02-14T03:55:06.825Z,21.58
2024-02-14T03:57:36.721Z,13.63
2024-02-14T04:00:05.685Z,20.80
2024-02-14T04:02:41.496Z,23.88
2024-02-14T04:05:10.164Z,13.43
2024-02-14T04:07:38.926Z,21.92
2024-02-14T04:10:07.803Z,16.45
2024-02-14T04:12:35.319Z,16.52
2024-02-14T04:15:03.072Z,13.55
2024-02-14T04:17:31.101Z,22.45
2024-02-14T04:19:58.807Z,16.52
2024-02-14T04:22:26.568Z,17.50
2024-02-14T04:24:54.026Z,18.55
2024-02-14T04:27:21.517Z,16.55
2024-02-14T04:29:49.304Z,10.77
2024-02-14T04:32:16.915Z,16.17
2024-02-14T04:34:45.351Z,15.10
2024-02-14T04:37:15.204Z,14.10
2024-02-14T04:39:43.603Z,17.60
2024-02-14T04:42:11.305Z,13.82
2024-02-14T04:44:38.967Z,11.13
2024-02-14T04:47:06.670Z,7.25
2024-02-14T04:49:34.472Z,14.98
2024-02-14T04:52:01.982Z,9.90
2024-02-14T04:54:29.514Z,14.35
2024-02-14T04:56:59.633Z,13.70
2024-02-14T04:59:29.732Z,15.20
2024-02-14T05:01:58.655Z,13.73
2024-02-14T05:04:26.189Z,12.60
2024-02-14T05:06:57.295Z,14.32
2024-02-14T05:09:26.767Z,11.45
2024-02-14T05:11:54.410Z,16.98
2024-02-14T05:14:21.976Z,16.20
2024-02-14T05:16:49.523Z,14.68
2024-02-14T05:19:17.284Z,15.68
2024-02-14T05:21:44.876Z,20.60
2024-02-14T05:24:12.482Z,13.30
2024-02-14T05:26:40.075Z,15.52
2024-02-14T05:29:07.623Z,20.10
2024-02-14T05:31:45.950Z,19.27
2024-02-14T05:34:14.039Z,11.40
2024-02-14T05:36:43.823Z,15.55
2024-02-14T05:39:11.676Z,18.02
2024-02-14T05:41:39.743Z,16.40
2024-02-14T05:44:07.472Z,16.55
2024-02-14T05:46:34.949Z,16.48
2024-02-14T05:49:02.584Z,14.50
2024-02-14T05:51:30.286Z,17.90
2024-02-14T05:53:57.950Z,15.35
2024-02-14T05:56:25.475Z,17.80
2024-02-14T05:58:53.793Z,20.67
2024-02-14T06:01:21.691Z,14.77
2024-02-14T06:03:49.344Z,21.95
2024-02-14T06:06:17.061Z,21.15
2024-02-14T06:08:45.790Z,17.98
2024-02-14T06:11:15.366Z,18.77
2024-02-14T06:13:45.234Z,16.23
2024-02-14T06:16:13.154Z,19.30
2024-02-14T06:18:41.891Z,13.88
2024-02-14T06:21:09.755Z,15.55
2024-02-14T06:23:38.504Z,14.60
2024-02-14T06:26:06.595Z,14.75
2024-02-14T06:28:34.262Z,21.63
2024-02-14T06:31:02.094Z,23.35
2024-02-14T06:33:30.178Z,20.55
2024-02-14T06:35:58.125Z,24.98
2024-02-14T06:38:25.785Z,21.50
2024-02-14T06:40:53.384Z,27.90
2024-02-14T06:43:21.072Z,23.25
2024-02-14T06:45:48.568Z,23.42
2024-02-14T06:48:16.212Z,20.73
2024-02-14T06:50:43.940Z,19.38
2024-02-14T06:53:11.537Z,13.88
2024-02-14T06:55:39.036Z,17.98
2024-02-14T06:58:07.667Z,20.77
2024-02-14T07:00:35.564Z,16.70
2024-02-14T07:03:03.992Z,19.15
2024-02-14T07:05:31.838Z,32.08
2024-02-14T07:07:59.532Z,14.00
2024-02-14T07:10:27.240Z,17.10
2024-02-14T07:12:54.822Z,19.95
2024-02-14T07:15:22.595Z,13.70
2024-02-14T07:17:50.360Z,17.25
2024-02-14T07:20:19.277Z,20.58
2024-02-14T07:22:48.917Z,18.15
2024-02-14T07:25:16.473Z,19.77
2024-02-14T07:27:43.975Z,19.58
2024-02-14T07:30:12.277Z,22.33
2024-02-14T07:32:40.091Z,16.35
2024-02-14T07:35:08.385Z,13.85
2024-02-14T07:37:36.012Z,20.98
2024-02-14T07:40:04.122Z,16.90
2024-02-14T07:42:32.746Z,17.17
2024-02-14T07:45:00.375Z,15.52
2024-02-14T07:47:28.061Z,16.17
2024-02-14T07:49:55.620Z,20.00
2024-02-14T07:52:23.158Z,16.08
2024-02-14T07:54:57.220Z,14.98
2024-02-14T07:57:25.531Z,18.35
2024-02-14T07:59:53.196Z,9.95
2024-02-14T08:02:21.548Z,16.00
2024-02-14T08:04:51.072Z,13.85
2024-02-14T08:07:20.034Z,21.20
2024-02-14T08:09:47.476Z,12.88
2024-02-14T08:12:15.250Z,14.45
2024-02-14T08:14:42.938Z,21.05
2024-02-14T08:17:10.539Z,16.42
2024-02-14T08:19:38.589Z,19.17
2024-02-14T08:22:07.108Z,16.63
2024-02-14T08:24:41.493Z,19.33
2024-02-14T08:27:09.290Z,13.77
2024-02-14T08:29:37.012Z,13.63
2024-02-14T08:32:06.232Z,19.45
2024-02-14T08:34:34.038Z,17.00
2024-02-14T08:37:01.740Z,11.45
2024-02-14T08:39:29.235Z,18.95
2024-02-14T08:41:56.759Z,17.27
2024-02-14T08:44:24.285Z,17.88
2024-02-14T08:46:52.036Z,16.85
2024-02-14T08:49:19.825Z,18.70
2024-02-14T08:51:48.764Z,12.48
2024-02-14T08:54:17.345Z,15.80
2024-02-14T08:56:45.064Z,17.95
2024-02-14T08:59:14.178Z,17.23
2024-02-14T09:01:41.808Z,17.60
2024-02-14T09:04:09.693Z,18.80
2024-02-14T09:06:38.492Z,20.77
2024-02-14T09:09:06.181Z,18.23
2024-02-14T09:11:33.759Z,12.32
2024-02-14T09:14:07.548Z,21.58
2024-02-14T09:16:35.169Z,15.43
2024-02-14T09:19:02.617Z,16.52
2024-02-14T09:21:30.326Z,18.05
2024-02-14T09:23:58.001Z,19.27
2024-02-14T09:26:25.542Z,15.27
2024-02-14T09:28:53.399Z,18.52
2024-02-14T09:31:21.171Z,19.58
2024-02-14T09:33:50.652Z,18.05
2024-02-14T09:36:18.655Z,14.52
2024-02-14T09:38:46.301Z,17.95
2024-02-14T09:41:37.552Z,8.35
2024-02-14T09:44:05.475Z,19.08
2024-02-14T09:46:33.149Z,16.67
2024-02-14T09:49:01.318Z,25.83
2024-02-14T09:51:30.580Z,17.70
2024-02-14T09:54:01.672Z,21.23
2024-02-14T09:56:30.354Z,20.70
2024-02-14T09:58:58.678Z,22.30
2024-02-14T10:01:27.223Z,12.95
2024-02-14T10:03:55.445Z,13.40
2024-02-14T10:06:25.097Z,16.83
2024-02-14T10:09:02.249Z,19.02
2024-02-14T10:11:34.104Z,20.45
2024-02-14T10:14:04.990Z,19.60
2024-02-14T10:16:33.272Z,14.18
2024-02-14T10:19:01.776Z,13.07
2024-02-14T10:21:30.277Z,17.30
2024-02-14T10:24:02.194Z,17.08
2024-02-14T10:26:31.219Z,13.30
2024-02-14T10:28:59.502Z,15.80
2024-02-14T10:31:27.847Z,14.40
2024-02-14T10:33:57.032Z,11.70
2024-02-14T10:36:24.729Z,19.08
2024-02-14T10:38:52.907Z,14.95
2024-02-14T10:41:20.541Z,12.40
2024-02-14T10:43:48.400Z,15.98
2024-02-14T10:46:24.522Z,18.50
2024-02-14T10:48:58.623Z,27.20
2024-02-14T10:51:27.028Z,15.30
2024-02-14T10:53:57.320Z,21.23
2024-02-14T10:56:30.629Z,19.70
2024-02-14T10:59:02.168Z,16.85
2024-02-14T11:01:33.997Z,14.20
2024-02-14T11:04:03.153Z,14.95
2024-02-14T11:06:46.148Z,13.75
2024-02-14T11:09:16.456Z,17.13
2024-02-14T11:11:48.292Z,22.42
2024-02-14T11:14:24.639Z,10.02
2024-02-14T11:16:53.462Z,12.57
2024-02-14T11:19:31.811Z,17.35
2024-02-14T11:22:01.778Z,14.80
2024-02-14T11:24:30.447Z,16.27
2024-02-14T11:26:58.041Z,13.30
2024-02-14T11:29:33.981Z,11.85
2024-02-14T11:32:03.505Z,14.60
2024-02-14T11:34:37.919Z,14.65
2024-02-14T11:37:09.612Z,12.55
2024-02-14T11:39:38.116Z,12.18
2024-02-14T11:42:06.044Z,10.02
2024-02-14T11:44:33.744Z,14.52
2024-02-14T11:47:01.880Z,14.75
2024-02-14T11:49:30.644Z,18.70
2024-02-14T11:51:58.199Z,11.93
2024-02-14T11:54:25.848Z,11.65
2024-02-14T11:56:53.540Z,14.60
2024-02-14T11:59:21.614Z,8.23
2024-02-14T12:01:54.459Z,8.32
2024-02-14T12:04:25.352Z,13.15
2024-02-14T12:06:53.156Z,11.85
2024-02-14T12:09:21.893Z,12.15
2024-02-14T12:11:49.473Z,13.50
2024-02-14T12:14:19.906Z,10.90
2024-02-14T12:16:47.435Z,16.52
2024-02-14T12:19:20.448Z,14.70
2024-02-14T12:21:50.078Z,9.65
2024-02-14T12:24:18.014Z,13.77
2024-02-14T12:26:45.736Z,9.40
2024-02-14T12:29:16.209Z,13.65
2024-02-14T12:31:45.153Z,12.25
2024-02-14T12:34:13.650Z,12.85
2024-02-14T12:36:41.793Z,13.05
2024-02-14T12:39:10.874Z,12.68
2024-02-14T12:41:41.376Z,10.82
2024-02-14T12:44:09.239Z,18.25
2024-02-14T12:46:39.496Z,9.75
2024-02-14T12:49:07.813Z,11.45
2024-02-14T12:51:37.343Z,9.20
2024-02-14T12:54:10.602Z,14.68
2024-02-14T12:56:38.414Z,12.25
2024-02-14T12:59:07.166Z,12.15
2024-02-14T13:01:34.942Z,14.13
2024-02-14T13:04:06.568Z,13.68
2024-02-14T13:06:35.083Z,8.90
2024-02-14T13:09:03.745Z,12.75
2024-02-14T13:11:33.143Z,9.27
2024-02-14T13:14:01.016Z,14.98
2024-02-14T13:16:28.683Z,11.05
2024-02-14T13:18:56.403Z,13.77
2024-02-14T13:21:24.172Z,8.57
2024-02-14T13:23:52.771Z,11.30
2024-02-14T13:26:20.448Z,12.52
2024-02-14T13:28:48.297Z,6.97
2024-02-14T13:31:16.226Z,9.13
2024-02-14T13:33:43.917Z,9.93
2024-02-14T13:36:12.614Z,14.45
2024-02-14T13:38:40.118Z,10.50
2024-02-14T13:41:07.684Z,8.32
2024-02-14T13:43:35.180Z,12.00
2024-02-14T13:46:03.427Z,10.75
2024-02-14T13:48:31.120Z,9.93
2024-02-14T13:50:58.799Z,9.80
2024-02-14T13:53:26.329Z,8.93
2024-02-14T13:55:54.426Z,9.05
2024-02-14T13:58:23.002Z,8.02
2024-02-14T14:00:50.489Z,11.45
2024-02-14T14:03:18.056Z,10.02
2024-02-14T14:05:45.660Z,12.20
2024-02-14T14:08:13.176Z,8.60
2024-02-14T14:10:41.623Z,7.20
2024-02-14T14:13:09.657Z,6.82
2024-02-14T14:15:37.214Z,10.93
2024-02-14T14:18:05.051Z,11.20
2024-02-14T14:20:32.906Z,10.35
2024-02-14T14:23:01.311Z,11.43
2024-02-14T14:25:29.612Z,10.00
2024-02-14T14:27:59.283Z,7.82
2024-02-14T14:30:26.924Z,7.45
2024-02-14T14:32:54.510Z,9.70
2024-02-14T14:35:22.877Z,7.45
2024-02-14T14:37:51.589Z,10.02
2024-02-14T14:40:19.202Z,9.77
2024-02-14T14:42:46.913Z,9.27
2024-02-14T14:45:14.743Z,9.93
2024-02-14T14:47:42.361Z,7.68
2024-02-14T14:50:10.200Z,7.50
2024-02-14T14:52:39.338Z,8.55
2024-02-14T14:55:07.112Z,10.18
2024-02-14T14:57:41.444Z,10.77
2024-02-14T15:00:14.404Z,8.20
2024-02-14T15:02:42.950Z,14.13
2024-02-14T15:05:12.027Z,14.60
2024-02-14T15:07:40.441Z,9.25
2024-02-14T15:10:11.613Z,8.63
2024-02-14T15:12:41.650Z,11.45
2024-02-14T15:15:15.265Z,14.00
2024-02-14T15:17:43.157Z,8.77
2024-02-14T15:20:11.199Z,12.45
2024-02-14T15:22:38.699Z,9.13
2024-02-14T15:25:07.010Z,7.53
2024-02-14T15:27:34.850Z,9.55
2024-02-14T15:30:21.381Z,7.40
2024-02-14T15:33:07.718Z,10.52
2024-02-14T15:35:36.159Z,8.02
2024-02-14T15:38:04.586Z,7.78
2024-02-14T15:40:34.837Z,9.23
2024-02-14T15:43:03.842Z,10.45
2024-02-14T15:45:31.448Z,5.88
2024-02-14T15:47:59.174Z,3.92
2024-02-14T15:50:26.646Z,6.28
2024-02-14T15:52:55.376Z,2.35
2024-02-14T15:55:22.969Z,5.90
2024-02-14T15:57:50.577Z,5.55
2024-02-14T16:00:18.570Z,6.55
2024-02-14T16:02:46.205Z,2.53
2024-02-14T16:05:13.804Z,4.43
2024-02-14T16:07:41.521Z,6.13
2024-02-14T16:10:10.232Z,5.78
2024-02-14T16:12:38.152Z,4.97
2024-02-14T16:15:06.093Z,10.30
2024-02-14T16:17:33.666Z,4.75
2024-02-14T16:20:01.370Z,5.22
2024-02-14T16:22:28.971Z,6.38
2024-02-14T16:24:56.565Z,4.63
2024-02-14T16:27:24.117Z,5.78
2024-02-14T16:29:51.838Z,4.68
2024-02-14T16:32:21.388Z,9.60
2024-02-14T16:34:51.908Z,6.72
2024-02-14T16:37:20.665Z,6.75
2024-02-14T16:39:51.438Z,8.88
2024-02-14T16:42:19.464Z,6.03
2024-02-14T16:44:47.129Z,5.28
2024-02-14T16:47:14.848Z,6.80
2024-02-14T16:49:42.505Z,8.32
2024-02-14T16:52:10.087Z,13.38
2024-02-14T16:54:38.646Z,8.75
2024-02-14T16:57:06.857Z,11.98
2024-02-14T16:59:34.810Z,6.97
2024-02-14T17:02:02.600Z,7.05
2024-02-14T17:04:30.307Z,7.32
2024-02-14T17:06:58.030Z,8.00
2024-02-14T17:09:25.606Z,6.03
2024-02-14T17:11:53.232Z,5.18
2024-02-14T17:14:21.190Z,9.02
2024-02-14T17:16:49.910Z,7.72
2024-02-14T17:19:20.896Z,5.63
2024-02-14T17:21:48.877Z,7.57
2024-02-14T17:24:16.497Z,6.13
2024-02-14T17:26:44.122Z,5.95
2024-02-14T17:29:12.397Z,5.55
2024-02-14T17:31:40.909Z,9.80
2024-02-14T17:34:08.784Z,7.45
2024-02-14T17:36:36.562Z,6.00
2024-02-14T17:39:06.797Z,7.05
2024-02-14T17:41:34.943Z,9.98
2024-02-14T17:44:03.097Z,9.18
2024-02-14T17:46:31.017Z,10.60
2024-02-14T17:48:59.190Z,10.23
2024-02-14T17:51:29.832Z,8.00
2024-02-14T17:53:57.465Z,9.35
2024-02-14T17:56:26.098Z,11.27
2024-02-14T17:58:53.892Z,5.53
2024-02-14T18:01:21.436Z,13.20
2024-02-14T18:03:48.996Z,7.43
2024-02-14T18:06:17.028Z,7.03
2024-02-14T18:08:45.933Z,8.98
2024-02-14T18:11:14.310Z,10.25
2024-02-14T18:13:42.319Z,6.18
2024-02-14T18:16:10.473Z,6.68
2024-02-14T18:18:41.532Z,8.27
2024-02-14T18:21:09.212Z,8.35
2024-02-14T18:23:36.725Z,7.82
2024-02-14T18:26:05.487Z,8.95
2024-02-14T18:28:34.823Z,8.68
2024-02-14T18:31:02.389Z,11.20
2024-02-14T18:33:30.172Z,8.77
2024-02-14T18:35:58.027Z,7.55
2024-02-14T18:38:32.249Z,8.82
2024-02-14T18:41:00.964Z,11.82
2024-02-14T18:43:29.950Z,12.10
2024-02-14T18:46:04.123Z,8.18
2024-02-14T18:48:31.922Z,8.82
2024-02-14T18:50:59.612Z,7.45
2024-02-14T18:53:27.455Z,9.05
2024-02-14T18:55:56.543Z,9.10
2024-02-14T18:58:25.037Z,14.05
2024-02-14T19:00:52.758Z,9.05
2024-02-14T19:03:21.339Z,8.63
2024-02-14T19:05:48.997Z,13.23
2024-02-14T19:08:16.577Z,10.30
2024-02-14T19:10:44.101Z,12.27
2024-02-14T19:13:11.891Z,13.15
2024-02-14T19:15:39.679Z,10.30
2024-02-14T19:18:07.408Z,9.50
2024-02-14T19:20:34.967Z,7.28
2024-02-14T19:23:07.261Z,8.07
2024-02-14T19:25:34.897Z,12.27
2024-02-14T19:28:02.857Z,9.88
2024-02-14T19:30:30.648Z,6.63
2024-02-14T19:32:58.229Z,9.80
2024-02-14T19:35:26.119Z,10.93
2024-02-14T19:37:53.591Z,8.90
2024-02-14T19:40:21.114Z,10.27
2024-02-14T19:42:48.561Z,10.88
2024-02-14T19:45:16.115Z,8.93
2024-02-14T19:47:43.647Z,9.20
2024-02-14T19:50:12.229Z,8.38
2024-02-14T19:52:39.989Z,11.23
2024-02-14T19:55:09.061Z,6.70
2024-02-14T19:57:37.568Z,8.95
2024-02-14T20:00:06.135Z,6.88
2024-02-14T20:02:39.881Z,11.43
2024-02-14T20:05:09.017Z,9.90
2024-02-14T20:07:37.059Z,9.18
2024-02-14T20:10:06.818Z,8.70
2024-02-14T20:12:35.753Z,9.60
2024-02-14T20:15:03.447Z,8.05
2024-02-14T20:17:30.943Z,7.72
2024-02-14T20:19:58.948Z,8.23
2024-02-14T20:22:29.423Z,11.15
2024-02-14T20:24:56.978Z,11.88
2024-02-14T20:27:25.936Z,10.60
2024-02-14T20:29:53.613Z,8.55
2024-02-14T20:32:22.132Z,11.98
2024-02-14T20:34:50.312Z,8.00
2024-02-14T20:37:17.933Z,8.90
2024-02-14T20:39:45.530Z,10.05
2024-02-14T20:42:15.911Z,8.70
2024-02-14T20:44:43.654Z,6.22
2024-02-14T20:47:14.609Z,11.48
2024-02-14T20:49:42.341Z,7.35
2024-02-14T20:52:09.914Z,8.05
2024-02-14T20:54:37.478Z,6.40
2024-02-14T20:57:05.067Z,8.20
2024-02-14T20:59:32.639Z,6.53
2024-02-14T21:02:00.116Z,5.53
2024-02-14T21:04:27.860Z,9.02
2024-02-14T21:06:56.378Z,8.82
2024-02-14T21:09:24.418Z,9.30
2024-02-14T21:11:52.452Z,8.20
2024-02-14T21:14:20.144Z,7.68
2024-02-14T21:16:48.077Z,6.35
2024-02-14T21:19:15.660Z,8.35
2024-02-14T21:21:43.129Z,5.47
2024-02-14T21:24:11.141Z,7.50
2024-02-14T21:26:38.763Z,8.00
2024-02-14T21:29:07.022Z,8.55
2024-02-14T21:31:34.778Z,7.88
2024-02-14T21:34:03.415Z,6.60
2024-02-14T21:36:31.521Z,6.47
2024-02-14T21:38:59.207Z,6.90
2024-02-14T21:41:27.654Z,8.25
2024-02-14T21:43:55.317Z,6.35
2024-02-14T21:46:24.442Z,5.82
2024-02-14T21:48:52.985Z,7.20
2024-02-14T21:51:21.350Z,9.15
2024-02-14T21:53:49.165Z,5.45
2024-02-14T21:56:17.103Z,7.53
2024-02-14T21:58:44.704Z,9.77
2024-02-14T22:01:12.682Z,11.13
2024-02-14T22:03:40.303Z,7.45
2024-02-14T22:06:08.379Z,9.63
2024-02-14T22:08:40.418Z,11.82
2024-02-14T22:11:14.522Z,7.40
2024-02-14T22:13:42.287Z,7.50
2024-02-14T22:16:17.165Z,8.63
2024-02-14T22:18:45.950Z,5.70
2024-02-14T22:21:13.591Z,7.30
2024-02-14T22:23:41.288Z,6.65
2024-02-14T22:26:10.684Z,6.82
2024-02-14T22:28:39.493Z,8.63
2024-02-14T22:31:08.745Z,10.20
2024-02-14T22:33:36.658Z,6.45
2024-02-14T22:36:04.741Z,6.22
2024-02-14T22:38:32.461Z,5.90
2024-02-14T22:41:25.164Z,8.73
2024-02-14T22:43:53.983Z,7.53
2024-02-14T22:46:21.669Z,6.82
2024-02-14T22:48:49.484Z,7.85
2024-02-14T22:51:18.040Z,10.13
2024-02-14T22:53:45.606Z,10.23
2024-02-14T22:56:13.140Z,6.68
2024-02-14T22:58:40.788Z,9.10
2024-02-14T23:01:08.440Z,8.90
2024-02-14T23:03:36.089Z,8.63
2024-02-14T23:06:04.106Z,7.15
2024-02-14T23:08:31.684Z,13.50
2024-02-14T23:10:59.154Z,10.43
2024-02-14T23:13:26.637Z,7.40
2024-02-14T23:15:55.766Z,7.07
2024-02-14T23:18:23.402Z,10.43
2024-02-14T23:20:51.139Z,9.55
2024-02-14T23:23:18.616Z,8.18
2024-02-14T23:25:47.991Z,7.85
2024-02-14T23:28:15.689Z,9.20
2024-02-14T23:30:43.954Z,8.65
2024-02-14T23:33:13.705Z,7.45
2024-02-14T23:35:42.249Z,10.90
2024-02-14T23:38:12.408Z,7.57
2024-02-14T23:40:41.057Z,7.15
2024-02-14T23:43:10.488Z,8.75
2024-02-14T23:45:38.059Z,7.57
2024-02-14T23:48:07.642Z,8.52
2024-02-14T23:50:35.401Z,6.80
2024-02-14T23:53:03.081Z,7.22
2024-02-14T23:55:30.882Z,8.30
2024-02-14T23:57:58.404Z,7.35
